Time;durP1;ratioP1;P1;durP2;ratioP2;P2;SDS_P1;SDS_P2;PMS_P1;PMS_P2;Temp;Humidity;BMP_temperature;BMP_pressure;BME280_temperature;BME280_humidity;BME280_pressure;Samples;Min_cycle;Max_cycle;Signal;HPM_P1;HPM_P2
2023/10/22 00:02:09;;;;;;;9.85;1.52;;;12.00;40.90;;;;;;5093128;28;20055;-28
2023/10/22 00:04:36;;;;;;;6.05;0.98;;;12.00;92.10;;;;;;5093629;28;20101;-29
2023/10/22 00:07:01;;;;;;;7.55;0.80;;;12.00;98.20;;;;;;5092593;28;20084;-29
2023/10/22 00:09:27;;;;;;;8.70;1.40;;;12.00;24.90;;;;;;5096028;28;20090;-29
2023/10/22 00:11:53;;;;;;;4.38;0.90;;;12.00;83.40;;;;;;5099503;28;20044;-28
2023/10/22 00:14:19;;;;;;;8.65;1.70;;;12.00;6.80;;;;;;5100389;28;20436;-29
2023/10/22 00:16:44;;;;;;;2.88;0.75;;;12.10;20.80;;;;;;5100953;28;20044;-28
2023/10/22 00:19:10;;;;;;;5.47;0.90;;;12.10;81.40;;;;;;5100428;28;20135;-29
2023/10/22 00:21:36;;;;;;;7.38;1.85;;;12.10;25.00;;;;;;5100405;28;20044;-31
2023/10/22 00:24:02;;;;;;;7.47;1.30;;;12.10;14.50;;;;;;5100527;28;20040;-29
2023/10/22 00:26:27;;;;;;;6.47;1.10;;;12.10;32.10;;;;;;5099966;28;20047;-28
2023/10/22 00:28:53;;;;;;;7.95;1.17;;;12.20;8.80;;;;;;5100251;28;20467;-29
2023/10/22 00:31:19;;;;;;;10.27;1.58;;;12.20;17.50;;;;;;5100294;28;20151;-30
2023/10/22 00:33:45;;;;;;;5.57;1.10;;;12.30;1.00;;;;;;5099239;28;20040;-29
2023/10/22 00:36:10;;;;;;;5.60;1.38;;;12.30;1.00;;;;;;5099282;28;20054;-28
2023/10/22 00:38:36;;;;;;;7.32;0.98;;;12.30;67.70;;;;;;5100305;28;20112;-29
2023/10/22 00:41:02;;;;;;;4.45;0.85;;;12.30;1.00;;;;;;5082679;28;20055;-28
2023/10/22 00:43:28;;;;;;;6.22;1.67;;;12.30;23.00;;;;;;5100373;28;20147;-28
2023/10/22 00:45:55;;;;;;;8.57;1.13;;;12.30;23.00;;;;;;5100733;28;20047;-29
2023/10/22 00:48:25;;;;;;;4.35;0.70;;;12.30;1.00;;;;;;5100112;28;20052;-28
2023/10/22 00:50:52;;;;;;;6.55;0.60;;;12.30;1.00;;;;;;5100772;28;20127;-29
2023/10/22 00:53:19;;;;;;;4.97;0.80;;;12.30;1.00;;;;;;5100156;28;20123;-28
2023/10/22 00:55:47;;;;;;;5.30;1.00;;;12.40;12.30;;;;;;5100143;28;20500;-29
2023/10/22 00:58:14;;;;;;;5.07;0.90;;;12.40;23.30;;;;;;5082537;28;20090;-29
2023/10/22 01:00:41;;;;;;;3.33;0.80;;;12.40;1.00;;;;;;5100335;28;20055;-29
2023/10/22 01:03:07;;;;;;;4.32;0.82;;;12.50;1.00;;;;;;5100140;28;20036;-29
2023/10/22 01:05:38;;;;;;;5.28;1.00;;;12.50;1.00;;;;;;5099696;28;20048;-28
2023/10/22 01:08:06;;;;;;;6.25;1.20;;;12.40;27.30;;;;;;5100068;28;20091;-29
2023/10/22 01:10:33;;;;;;;5.60;0.73;;;12.40;1.00;;;;;;5099954;28;20547;-30
2023/10/22 01:12:59;;;;;;;6.07;1.05;;;12.40;1.00;;;;;;5082368;28;20101;-28
2023/10/22 01:15:26;;;;;;;3.47;0.90;;;12.40;1.00;;;;;;5099574;28;20048;-29
2023/10/22 01:17:52;;;;;;;6.45;0.82;;;12.40;57.40;;;;;;5098759;28;20051;-28
2023/10/22 01:20:18;;;;;;;7.93;0.70;;;12.30;73.80;;;;;;5099353;28;20466;-30
2023/10/22 01:22:44;;;;;;;6.05;0.70;;;12.30;99.90;;;;;;5095231;28;20517;-28
2023/10/22 01:25:10;;;;;;;3.85;0.80;;;12.20;99.30;;;;;;5096704;28;20083;-28
2023/10/22 01:27:37;;;;;;;5.45;1.00;;;12.20;99.90;;;;;;5096562;28;20130;-28
2023/10/22 01:30:04;;;;;;;3.15;0.60;;;12.20;99.90;;;;;;5096479;28;20505;-28
2023/10/22 01:32:30;;;;;;;3.00;1.05;;;12.20;99.90;;;;;;5095378;28;20436;-28
2023/10/22 01:35:02;;;;;;;4.38;0.75;;;12.20;99.90;;;;;;5095309;28;20061;-28
2023/10/22 01:37:28;;;;;;;2.63;0.45;;;12.10;99.90;;;;;;5096472;28;20051;-28
2023/10/22 01:39:54;;;;;;;2.75;0.55;;;12.00;99.90;;;;;;5095359;28;20389;-30
2023/10/22 01:42:20;;;;;;;3.95;0.68;;;12.00;99.90;;;;;;5095974;28;20566;-29
2023/10/22 01:44:46;;;;;;;2.95;1.00;;;12.00;99.90;;;;;;5096696;28;20127;-28
2023/10/22 01:47:11;;;;;;;5.70;0.63;;;11.90;99.90;;;;;;5094992;28;20047;-29
2023/10/22 01:49:38;;;;;;;2.78;0.38;;;11.80;99.90;;;;;;5096677;28;20044;-28
2023/10/22 01:52:04;;;;;;;4.75;0.70;;;11.80;99.90;;;;;;5096117;28;20077;-28
2023/10/22 01:54:30;;;;;;;4.88;0.70;;;11.80;99.90;;;;;;5094801;28;20044;-28
2023/10/22 01:56:56;;;;;;;5.28;0.60;;;11.70;99.90;;;;;;5095093;28;20131;-30
2023/10/22 01:59:21;;;;;;;2.38;1.05;;;11.70;99.90;;;;;;5095611;28;20164;-28
2023/10/22 02:01:47;;;;;;;4.60;0.70;;;11.70;99.90;;;;;;5095853;28;20048;-28
2023/10/22 02:04:13;;;;;;;4.32;0.70;;;11.60;99.90;;;;;;5096267;28;20044;-28
2023/10/22 02:06:39;;;;;;;4.68;0.80;;;11.50;99.90;;;;;;5095841;28;20055;-27
2023/10/22 02:09:05;;;;;;;5.55;0.60;;;11.30;99.90;;;;;;5095456;28;20105;-29
2023/10/22 02:11:31;;;;;;;3.47;0.60;;;11.20;99.90;;;;;;5094631;28;20044;-27
2023/10/22 02:13:58;;;;;;;3.70;0.82;;;11.10;99.90;;;;;;5095691;28;20051;-28
2023/10/22 02:16:24;;;;;;;4.10;1.00;;;11.00;99.90;;;;;;5095677;28;20105;-27
2023/10/22 02:18:50;;;;;;;6.90;1.00;;;11.00;99.90;;;;;;5095628;28;20070;-28
2023/10/22 02:21:16;;;;;;;9.40;1.30;;;10.90;99.90;;;;;;5095557;28;20094;-28
2023/10/22 02:23:42;;;;;;;4.25;1.10;;;10.80;99.90;;;;;;5095110;28;20551;-28
2023/10/22 02:26:08;;;;;;;5.25;1.10;;;10.80;99.90;;;;;;5095471;28;20130;-28
2023/10/22 02:28:34;;;;;;;7.35;1.77;;;10.70;99.90;;;;;;5094423;28;20110;-28
2023/10/22 02:31:00;;;;;;;5.07;1.60;;;10.80;99.90;;;;;;5095379;28;20046;-28
2023/10/22 02:33:26;;;;;;;7.47;1.50;;;10.70;99.90;;;;;;5094901;28;20432;-28
2023/10/22 02:35:51;;;;;;;6.75;2.05;;;10.70;99.90;;;;;;5095727;28;20048;-27
2023/10/22 02:38:18;;;;;;;4.30;1.42;;;10.70;99.90;;;;;;5095181;28;20098;-27
2023/10/22 02:40:49;;;;;;;5.55;2.00;;;10.70;99.90;;;;;;5095160;28;20040;-27
2023/10/22 02:43:15;;;;;;;6.05;2.13;;;10.60;99.90;;;;;;5095620;28;20076;-27
2023/10/22 02:45:51;;;;;;;8.05;1.90;;;10.70;99.90;;;;;;5095147;28;20094;-27
2023/10/22 02:48:16;;;;;;;5.30;1.90;;;10.70;99.90;;;;;;5095326;28;20048;-27
2023/10/22 02:50:42;;;;;;;4.70;1.85;;;10.70;99.90;;;;;;5094977;28;20509;-28
2023/10/22 02:53:09;;;;;;;7.68;1.50;;;10.70;99.90;;;;;;5093819;28;20048;-27
2023/10/22 02:55:35;;;;;;;6.97;1.75;;;10.70;99.90;;;;;;5094989;28;20039;-27
2023/10/22 02:58:01;;;;;;;11.10;2.80;;;10.70;99.90;;;;;;5077046;28;20059;-28
2023/10/22 03:00:27;;;;;;;7.43;1.95;;;10.80;99.90;;;;;;5094831;28;20399;-29
2023/10/22 03:02:53;;;;;;;4.53;1.70;;;10.80;99.90;;;;;;5094645;28;20093;-28
2023/10/22 03:05:19;;;;;;;3.92;1.70;;;10.80;99.90;;;;;;5094767;28;20555;-28
2023/10/22 03:07:44;;;;;;;4.43;1.65;;;10.80;99.90;;;;;;5094615;28;20418;-27
2023/10/22 03:10:10;;;;;;;4.35;1.70;;;10.70;99.90;;;;;;5094439;28;20056;-29
2023/10/22 03:12:37;;;;;;;5.32;1.67;;;10.70;99.90;;;;;;5093965;28;20097;-28
2023/10/22 03:15:07;;;;;;;6.93;2.05;;;10.70;99.90;;;;;;5077527;28;20051;-28
2023/10/22 03:17:33;;;;;;;3.97;1.70;;;10.70;99.90;;;;;;5094547;28;20233;-27
2023/10/22 03:19:58;;;;;;;4.85;1.80;;;10.70;99.90;;;;;;5095243;28;20084;-29
2023/10/22 03:22:26;;;;;;;5.30;2.40;;;10.70;99.90;;;;;;5076553;28;20056;-28
2023/10/22 03:24:51;;;;;;;5.05;2.20;;;10.70;99.90;;;;;;5094259;28;20075;-29
2023/10/22 03:27:18;;;;;;;3.45;2.20;;;10.70;99.90;;;;;;5093114;28;20087;-28
2023/10/22 03:29:44;;;;;;;6.93;2.13;;;10.70;99.90;;;;;;5094229;28;20047;-29
2023/10/22 03:32:10;;;;;;;5.03;2.40;;;10.80;99.90;;;;;;5076866;28;20040;-28
2023/10/22 03:34:36;;;;;;;3.92;2.60;;;10.70;99.90;;;;;;5094168;28;20047;-29
2023/10/22 03:37:08;;;;;;;6.47;2.72;;;10.70;99.90;;;;;;5093843;28;20098;-29
2023/10/22 03:39:36;;;;;;;5.10;2.53;;;10.80;99.90;;;;;;5093401;28;20048;-31
2023/10/22 03:42:02;;;;;;;7.80;2.85;;;10.70;99.90;;;;;;5093133;28;20048;-28
2023/10/22 03:44:29;;;;;;;8.32;3.30;;;10.70;99.90;;;;;;5093359;28;20040;-29
2023/10/22 03:46:55;;;;;;;4.63;1.90;;;10.90;99.90;;;;;;5094061;28;20438;-29
2023/10/22 03:49:21;;;;;;;6.35;2.88;;;10.80;99.90;;;;;;5094001;28;20504;-28
2023/10/22 03:51:46;;;;;;;4.25;2.38;;;10.90;99.90;;;;;;5093321;28;20052;-29
2023/10/22 03:54:12;;;;;;;4.88;2.40;;;10.80;99.90;;;;;;5093930;28;20043;-29
2023/10/22 03:56:38;;;;;;;4.22;2.65;;;10.80;99.90;;;;;;5093989;28;20059;-28
2023/10/22 03:59:04;;;;;;;4.82;2.03;;;11.00;99.90;;;;;;5094164;28;20055;-29
2023/10/22 04:01:29;;;;;;;6.45;2.33;;;11.00;99.90;;;;;;5092630;28;20398;-29
2023/10/22 04:03:55;;;;;;;4.25;1.77;;;11.00;99.90;;;;;;5092430;28;20044;-29
2023/10/22 04:06:21;;;;;;;4.25;1.70;;;10.90;99.90;;;;;;5093680;28;20052;-29
2023/10/22 04:08:47;;;;;;;6.38;1.73;;;11.10;99.90;;;;;;5092444;28;20062;-28
2023/10/22 04:11:12;;;;;;;3.30;1.63;;;11.10;99.90;;;;;;5076017;28;20048;-27
2023/10/22 04:13:38;;;;;;;7.43;1.67;;;11.00;99.90;;;;;;5093942;28;20043;-28
2023/10/22 04:16:04;;;;;;;4.43;1.75;;;11.20;99.90;;;;;;5093719;28;20493;-29
2023/10/22 04:18:30;;;;;;;3.42;1.67;;;11.00;99.90;;;;;;5093069;28;20051;-28
2023/10/22 04:20:56;;;;;;;2.22;1.95;;;11.10;99.90;;;;;;5093585;28;20040;-28
2023/10/22 04:23:22;;;;;;;2.63;1.60;;;11.20;99.90;;;;;;5094329;28;20077;-27
2023/10/22 04:25:47;;;;;;;2.40;1.40;;;11.20;99.90;;;;;;5093646;28;20131;-28
2023/10/22 04:28:15;;;;;;;2.17;1.38;;;11.20;99.90;;;;;;5093806;28;20044;-27
2023/10/22 04:30:45;;;;;;;2.85;1.20;;;11.00;99.90;;;;;;5093398;28;20075;-28
2023/10/22 04:33:12;;;;;;;3.35;1.30;;;11.20;99.90;;;;;;5094224;28;20051;-28
2023/10/22 04:35:38;;;;;;;2.28;1.25;;;11.20;99.90;;;;;;5094042;28;20051;-27
2023/10/22 04:38:04;;;;;;;2.63;1.23;;;11.10;99.90;;;;;;5093497;28;20070;-28
2023/10/22 04:40:33;;;;;;;2.05;0.95;;;11.30;99.90;;;;;;5093515;28;20055;-28
2023/10/22 04:42:59;;;;;;;2.63;1.13;;;11.20;99.90;;;;;;5093414;28;20048;-28
2023/10/22 04:45:25;;;;;;;3.53;1.30;;;11.20;99.90;;;;;;5093498;28;20106;-27
2023/10/22 04:47:51;;;;;;;5.18;1.60;;;11.10;99.90;;;;;;5093401;28;20058;-27
2023/10/22 04:50:17;;;;;;;1.83;1.00;;;11.10;99.90;;;;;;5093424;28;20118;-27
2023/10/22 04:52:43;;;;;;;1.13;0.90;;;11.10;99.90;;;;;;5093387;28;20051;-27
2023/10/22 04:55:15;;;;;;;1.90;0.82;;;11.20;99.90;;;;;;5093225;28;20113;-27
2023/10/22 04:57:41;;;;;;;2.58;1.00;;;11.10;99.90;;;;;;5097567;28;20048;-27
2023/10/22 05:00:09;;;;;;;2.05;1.00;;;11.20;99.90;;;;;;5097665;28;20056;-27
2023/10/22 05:02:36;;;;;;;2.20;1.55;;;11.10;99.90;;;;;;5097034;28;20044;-26
2023/10/22 05:05:02;;;;;;;3.08;1.80;;;11.20;99.90;;;;;;5097248;28;20405;-26
2023/10/22 05:07:28;;;;;;;3.35;2.00;;;11.20;99.90;;;;;;5096722;28;20456;-26
2023/10/22 05:09:54;;;;;;;4.47;3.08;;;11.20;99.90;;;;;;5097266;28;20048;-26
2023/10/22 05:12:19;;;;;;;3.22;2.47;;;11.20;99.90;;;;;;5096844;28;20051;-26
2023/10/22 05:14:45;;;;;;;4.07;2.78;;;11.20;99.90;;;;;;5097050;28;20127;-26
2023/10/22 05:17:11;;;;;;;4.63;3.50;;;11.30;99.90;;;;;;5096742;28;20052;-27
2023/10/22 05:19:37;;;;;;;4.28;3.60;;;11.30;99.90;;;;;;5096042;28;20040;-26
2023/10/22 05:22:06;;;;;;;5.82;3.85;;;11.30;99.90;;;;;;5097264;28;20152;-26
2023/10/22 05:24:32;;;;;;;4.72;3.92;;;11.30;99.90;;;;;;5096562;28;20039;-26
2023/10/22 05:26:58;;;;;;;6.72;5.07;;;11.40;99.90;;;;;;5096598;28;20086;-26
2023/10/22 05:29:23;;;;;;;6.35;5.68;;;11.50;99.90;;;;;;5096575;28;20040;-26
2023/10/22 05:31:50;;;;;;;7.03;6.18;;;11.50;99.90;;;;;;5096524;28;20051;-26
2023/10/22 05:34:16;;;;;;;10.43;5.93;;;11.50;99.90;;;;;;5097359;28;20044;-25
2023/10/22 05:36:42;;;;;;;10.40;7.05;;;11.50;99.90;;;;;;5096433;28;20451;-26
2023/10/22 05:39:08;;;;;;;8.55;7.60;;;11.50;99.90;;;;;;5095428;28;20048;-26
2023/10/22 05:41:33;;;;;;;10.95;7.82;;;11.50;99.90;;;;;;5096841;28;20097;-26
2023/10/22 05:44:02;;;;;;;9.60;7.05;;;11.60;99.90;;;;;;5096237;28;20047;-27
2023/10/22 05:46:30;;;;;;;9.18;7.63;;;11.60;99.90;;;;;;5095085;28;20051;-26
2023/10/22 05:48:56;;;;;;;9.90;7.32;;;11.60;99.90;;;;;;5096240;28;20052;-25
2023/10/22 05:51:22;;;;;;;10.13;7.53;;;11.60;99.90;;;;;;5079182;28;20546;-26
2023/10/22 05:53:47;;;;;;;9.88;7.43;;;11.70;99.90;;;;;;5096101;28;20044;-25
2023/10/22 05:56:13;;;;;;;12.50;7.50;;;11.70;99.90;;;;;;5096094;28;20090;-25
2023/10/22 05:58:39;;;;;;;14.52;8.10;;;11.70;99.90;;;;;;5095567;28;20108;-26
2023/10/22 06:01:06;;;;;;;7.07;6.30;;;11.70;99.90;;;;;;5094973;28;20156;-26
2023/10/22 06:03:32;;;;;;;6.57;5.88;;;11.80;99.90;;;;;;5095918;28;20036;-25
2023/10/22 06:05:58;;;;;;;5.22;4.28;;;11.80;99.90;;;;;;5094687;28;20528;-24
2023/10/22 06:08:23;;;;;;;2.75;1.60;;;11.80;99.90;;;;;;5094540;28;20066;-24
2023/10/22 06:10:49;;;;;;;3.28;0.73;;;11.90;99.90;;;;;;5096351;28;20059;-23
2023/10/22 06:13:15;;;;;;;0.47;0.32;;;11.60;99.90;;;;;;5094586;28;20037;-22
2023/10/22 06:15:43;;;;;;;4.03;0.30;;;11.60;99.90;;;;;;5094756;28;20056;-22
2023/10/22 06:18:09;;;;;;;2.05;0.52;;;11.30;99.90;;;;;;5095642;28;20047;-22
2023/10/22 06:20:36;;;;;;;6.50;1.10;;;11.40;99.90;;;;;;5095580;28;20047;-22
2023/10/22 06:23:03;;;;;;;3.47;0.70;;;11.20;99.90;;;;;;5095109;28;20047;-23
2023/10/22 06:25:33;;;;;;;9.20;1.10;;;11.00;99.90;;;;;;5095506;28;20074;-23
2023/10/22 06:28:00;;;;;;;4.43;1.13;;;11.00;99.90;;;;;;5095458;28;20141;-23
2023/10/22 06:30:27;;;;;;;6.72;1.02;;;11.00;99.90;;;;;;5095424;28;20070;-23
2023/10/22 06:32:57;;;;;;;6.28;1.67;;;11.10;99.90;;;;;;5094180;28;20044;-24
2023/10/22 06:35:26;;;;;;;9.10;2.33;;;10.90;99.90;;;;;;5095315;28;20493;-22
2023/10/22 06:37:52;;;;;;;5.82;2.28;;;11.00;99.90;;;;;;5095277;28;20055;-22
2023/10/22 06:40:22;;;;;;;12.32;3.55;;;11.00;99.90;;;;;;5094242;28;20577;-22
2023/10/22 06:42:48;;;;;;;9.57;2.60;;;10.90;99.90;;;;;;5093923;28;20040;-24
2023/10/22 06:45:15;;;;;;;6.50;1.65;;;11.10;99.90;;;;;;5094162;28;20398;-23
2023/10/22 06:47:41;;;;;;;2.15;0.70;;;10.90;99.90;;;;;;5095075;28;20098;-22
2023/10/22 06:50:09;;;;;;;3.80;0.75;;;10.80;99.90;;;;;;5095020;28;20122;-24
2023/10/22 06:52:35;;;;;;;5.35;0.70;;;10.80;99.90;;;;;;5077130;28;20535;-22
2023/10/22 06:55:02;;;;;;;3.72;0.80;;;10.70;99.90;;;;;;5095482;28;20055;-23
2023/10/22 06:57:28;;;;;;;3.50;0.80;;;10.70;99.90;;;;;;5094500;28;20060;-25
2023/10/22 06:59:56;;;;;;;6.72;0.95;;;10.70;99.90;;;;;;5094228;28;20422;-24
2023/10/22 07:02:23;;;;;;;3.78;1.27;;;10.70;99.90;;;;;;5094803;28;20127;-24
2023/10/22 07:04:55;;;;;;;2.90;0.60;;;10.70;99.90;;;;;;5093480;28;20084;-24
2023/10/22 07:07:22;;;;;;;5.45;1.10;;;10.80;99.90;;;;;;5094707;28;20055;-25
2023/10/22 07:09:48;;;;;;;4.45;1.20;;;10.80;99.90;;;;;;5094250;28;20056;-25
2023/10/22 07:12:15;;;;;;;4.57;1.25;;;10.90;99.90;;;;;;5093703;28;20048;-24
2023/10/22 07:14:41;;;;;;;5.22;1.20;;;10.80;99.90;;;;;;5094669;28;20051;-25
2023/10/22 07:17:07;;;;;;;5.32;1.00;;;10.80;99.90;;;;;;5093434;28;20062;-25
2023/10/22 07:19:33;;;;;;;6.50;1.10;;;10.80;99.90;;;;;;5059122;28;20482;-25
2023/10/22 07:22:00;;;;;;;4.57;1.85;;;10.90;99.90;;;;;;5094461;28;20055;-24
2023/10/22 07:24:26;;;;;;;6.18;2.22;;;10.90;99.90;;;;;;5094353;28;20123;-24
2023/10/22 07:26:52;;;;;;;9.25;2.10;;;10.90;99.90;;;;;;5093411;28;20087;-24
2023/10/22 07:29:18;;;;;;;3.20;1.00;;;10.90;99.90;;;;;;5094265;28;20080;-24
2023/10/22 07:31:46;;;;;;;8.75;2.22;;;10.90;99.90;;;;;;5094594;28;20065;-24
2023/10/22 07:34:12;;;;;;;6.57;2.55;;;10.90;99.90;;;;;;5076743;28;20048;-24
2023/10/22 07:36:38;;;;;;;11.52;3.55;;;10.90;99.90;;;;;;5093082;28;20044;-24
2023/10/22 07:39:04;;;;;;;9.13;3.78;;;10.90;99.90;;;;;;5094069;28;20044;-24
2023/10/22 07:41:30;;;;;;;7.50;3.22;;;10.90;99.90;;;;;;5092914;28;20047;-24
2023/10/22 07:43:55;;;;;;;12.98;4.05;;;10.90;99.90;;;;;;5094060;28;20032;-24
2023/10/22 07:46:21;;;;;;;12.43;3.67;;;10.90;99.90;;;;;;5094033;28;20494;-24
2023/10/22 07:48:47;;;;;;;8.48;3.92;;;10.90;99.90;;;;;;5094004;28;20402;-24
2023/10/22 07:51:17;;;;;;;9.43;3.97;;;10.90;99.90;;;;;;5092761;28;20394;-24
2023/10/22 07:53:45;;;;;;;9.68;3.45;;;10.90;99.90;;;;;;5093925;28;20050;-24
2023/10/22 07:56:11;;;;;;;9.05;3.13;;;10.90;99.90;;;;;;5093934;28;20055;-24
2023/10/22 07:58:38;;;;;;;10.20;4.50;;;10.90;99.90;;;;;;5093954;28;20047;-24
2023/10/22 08:01:06;;;;;;;5.07;2.55;;;10.90;99.90;;;;;;5093826;28;20083;-24
2023/10/22 08:03:33;;;;;;;5.60;2.20;;;10.90;99.90;;;;;;5093671;28;20470;-24
2023/10/22 08:06:00;;;;;;;9.00;3.28;;;10.90;99.90;;;;;;5092821;28;20536;-24
2023/10/22 08:08:26;;;;;;;6.75;2.40;;;10.90;99.90;;;;;;5093263;28;20394;-24
2023/10/22 08:10:57;;;;;;;9.88;3.60;;;10.90;99.90;;;;;;5094367;28;20523;-24
2023/10/22 08:13:23;;;;;;;9.38;2.42;;;11.00;99.90;;;;;;5093790;28;20040;-24
2023/10/22 08:15:49;;;;;;;10.23;3.22;;;11.00;99.90;;;;;;5093683;28;20172;-25
2023/10/22 08:18:15;;;;;;;15.70;4.82;;;11.00;99.90;;;;;;5093698;28;20047;-25
2023/10/22 08:20:41;;;;;;;8.43;2.20;;;11.00;99.90;;;;;;5075965;28;20543;-25
2023/10/22 08:23:07;;;;;;;8.73;2.20;;;11.00;99.90;;;;;;5093581;28;20047;-25
2023/10/22 08:25:33;;;;;;;4.63;1.83;;;11.10;99.90;;;;;;5093643;28;20481;-25
2023/10/22 08:27:59;;;;;;;10.25;1.90;;;11.20;99.90;;;;;;5092504;28;20055;-25
2023/10/22 08:30:25;;;;;;;4.95;1.33;;;11.30;99.90;;;;;;5094967;28;20423;-26
2023/10/22 08:32:51;;;;;;;13.13;2.50;;;11.40;99.90;;;;;;5098262;28;20048;-26
2023/10/22 08:35:17;;;;;;;8.43;1.88;;;11.50;99.90;;;;;;5097638;28;20051;-25
2023/10/22 08:37:44;;;;;;;12.73;2.20;;;11.60;99.90;;;;;;5097606;28;20048;-26
2023/10/22 08:40:11;;;;;;;5.10;1.45;;;11.60;99.90;;;;;;5097564;28;20052;-27
2023/10/22 08:42:37;;;;;;;7.10;1.90;;;11.60;99.90;;;;;;5096327;28;20048;-26
2023/10/22 08:45:05;;;;;;;11.25;3.10;;;11.70;99.90;;;;;;5097326;28;20046;-26
2023/10/22 08:47:31;;;;;;;10.30;1.60;;;11.80;99.90;;;;;;5096281;28;20200;-26
2023/10/22 08:49:58;;;;;;;8.77;1.63;;;11.80;99.90;;;;;;5096479;28;20101;-26
2023/10/22 08:52:24;;;;;;;7.22;1.20;;;11.90;99.90;;;;;;5097361;28;20051;-26
2023/10/22 08:54:51;;;;;;;6.32;1.35;;;11.90;99.90;;;;;;5097254;28;20040;-26
2023/10/22 08:57:21;;;;;;;4.90;1.00;;;11.90;99.90;;;;;;5097801;28;20044;-26
2023/10/22 08:59:47;;;;;;;5.18;1.63;;;11.90;99.90;;;;;;5095938;28;20405;-26
2023/10/22 09:02:16;;;;;;;4.72;1.38;;;11.90;99.90;;;;;;5097176;28;20048;-26
2023/10/22 09:04:42;;;;;;;5.22;1.10;;;12.00;99.90;;;;;;5097023;28;20098;-26
2023/10/22 09:07:08;;;;;;;3.00;0.65;;;12.00;99.90;;;;;;5097052;28;20052;-26
2023/10/22 09:09:37;;;;;;;6.13;0.95;;;12.00;99.90;;;;;;5097196;28;20490;-27
2023/10/22 09:12:04;;;;;;;4.95;1.23;;;12.10;99.90;;;;;;5097000;28;20105;-26
2023/10/22 09:14:30;;;;;;;5.00;0.98;;;12.10;99.90;;;;;;5096901;28;20040;-26
2023/10/22 09:16:57;;;;;;;4.60;0.65;;;12.10;99.90;;;;;;5095712;28;20044;-27
2023/10/22 09:19:36;;;;;;;3.55;0.55;;;12.10;99.90;;;;;;5096822;28;20131;-26
2023/10/22 09:22:03;;;;;;;5.15;0.50;;;12.20;99.90;;;;;;5096800;28;20126;-26
2023/10/22 09:24:31;;;;;;;5.07;0.50;;;12.20;99.90;;;;;;5096366;28;20371;-26
2023/10/22 09:26:57;;;;;;;4.80;0.88;;;12.20;99.90;;;;;;5096674;28;20044;-26
2023/10/22 09:29:24;;;;;;;7.47;1.05;;;12.20;99.90;;;;;;5096605;28;20054;-26
2023/10/22 09:31:56;;;;;;;2.35;0.30;;;12.30;99.90;;;;;;5096911;28;20055;-27
2023/10/22 09:34:30;;;;;;;3.47;0.65;;;12.30;99.90;;;;;;5096875;28;20043;-25
2023/10/22 09:36:56;;;;;;;7.35;1.00;;;12.40;99.90;;;;;;5097082;28;20048;-26
2023/10/22 09:39:38;;;;;;;3.38;0.50;;;12.50;99.90;;;;;;5097051;28;20044;-28
2023/10/22 09:42:05;;;;;;;3.30;0.43;;;12.70;99.90;;;;;;5095152;28;20046;-26
2023/10/22 09:44:35;;;;;;;3.47;0.45;;;13.40;99.90;;;;;;5096291;28;20040;-27
2023/10/22 09:47:02;;;;;;;9.95;1.23;;;14.10;99.90;;;;;;5096568;28;20047;-27
2023/10/22 09:49:32;;;;;;;2.30;0.50;;;14.60;99.90;;;;;;5095286;28;20486;-27
2023/10/22 09:52:04;;;;;;;1.55;0.40;;;14.80;99.90;;;;;;5096178;28;20505;-27
2023/10/22 09:54:41;;;;;;;2.92;0.38;;;14.80;99.90;;;;;;5096487;28;20496;-27
2023/10/22 09:57:15;;;;;;;5.32;0.40;;;14.70;1.00;;;;;;5096485;28;20066;-28
2023/10/22 09:59:41;;;;;;;2.90;0.43;;;14.70;99.90;;;;;;5096075;28;20044;-28
2023/10/22 10:02:17;;;;;;;2.35;0.35;;;14.60;99.90;;;;;;5096001;28;20085;-28
2023/10/22 10:04:44;;;;;;;7.18;0.32;;;14.50;99.90;;;;;;5078380;28;20055;-29
2023/10/22 10:07:10;;;;;;;4.40;1.33;;;14.60;99.90;;;;;;5095879;28;20044;-28
2023/10/22 10:09:37;;;;;;;2.72;0.73;;;14.50;1.00;;;;;;5094603;28;20105;-29
2023/10/22 10:12:06;;;;;;;1.52;0.20;;;14.60;99.90;;;;;;5094593;28;20040;-27
2023/10/22 10:14:38;;;;;;;2.60;0.47;;;14.60;1.00;;;;;;5094846;28;20044;-28
2023/10/22 10:17:04;;;;;;;3.03;0.40;;;14.40;91.30;;;;;;5094677;28;20098;-29
2023/10/22 10:19:30;;;;;;;3.72;0.70;;;14.40;99.90;;;;;;5095633;28;20044;-29
2023/10/22 10:21:56;;;;;;;1.50;0.25;;;14.40;1.00;;;;;;5095270;28;20043;-31
2023/10/22 10:24:27;;;;;;;1.58;0.47;;;14.50;99.90;;;;;;5095481;28;20067;-28
2023/10/22 10:26:56;;;;;;;1.85;0.43;;;14.80;99.90;;;;;;5094559;28;20047;-29
2023/10/22 10:29:25;;;;;;;3.03;0.52;;;15.10;99.90;;;;;;5096041;28;20073;-29
2023/10/22 10:31:53;;;;;;;4.03;0.40;;;15.20;1.00;;;;;;5095424;28;20083;-29
2023/10/22 10:34:36;;;;;;;4.78;0.80;;;15.00;99.90;;;;;;5095391;28;20050;-29
2023/10/22 10:37:15;;;;;;;2.63;0.43;;;14.50;1.00;;;;;;5077851;28;20078;-29
2023/10/22 10:39:40;;;;;;;3.75;0.30;;;13.90;74.80;;;;;;5094913;28;20494;-30
2023/10/22 10:42:07;;;;;;;5.05;0.68;;;14.00;99.90;;;;;;5094259;28;20057;-29
2023/10/22 10:44:55;;;;;;;2.92;0.70;;;14.40;99.90;;;;;;5095113;28;20083;-29
2023/10/22 10:47:21;;;;;;;3.17;0.40;;;14.70;87.50;;;;;;5094844;28;20060;-31
2023/10/22 10:50:10;;;;;;;1.60;0.50;;;14.90;99.90;;;;;;5095044;28;20047;-30
2023/10/22 10:52:42;;;;;;;4.53;0.28;;;15.10;1.00;;;;;;5095058;28;20478;-29
2023/10/22 10:55:14;;;;;;;3.50;0.55;;;15.30;1.00;;;;;;5095598;28;20044;-30
2023/10/22 10:57:42;;;;;;;1.60;0.32;;;15.00;99.90;;;;;;5094897;28;20048;-31
2023/10/22 11:00:09;;;;;;;2.00;0.40;;;14.90;99.90;;;;;;5094821;28;20052;-29
2023/10/22 11:02:46;;;;;;;0.98;0.20;;;14.60;99.90;;;;;;5094737;28;20101;-30
2023/10/22 11:05:13;;;;;;;1.98;0.10;;;14.60;99.90;;;;;;5094704;28;20044;-30
2023/10/22 11:07:40;;;;;;;5.30;0.50;;;14.60;99.90;;;;;;5094725;28;20039;-30
2023/10/22 11:10:16;;;;;;;1.42;0.77;;;14.30;1.00;;;;;;5092171;28;20470;-30
2023/10/22 11:12:45;;;;;;;4.22;0.45;;;13.90;1.00;;;;;;5094688;28;20052;-30
2023/10/22 11:15:12;;;;;;;1.42;0.30;;;13.60;99.90;;;;;;5094607;28;20040;-29
2023/10/22 11:17:39;;;;;;;1.92;0.13;;;13.60;99.90;;;;;;5094511;28;20048;-30
2023/10/22 11:20:13;;;;;;;1.00;0.22;;;14.00;99.90;;;;;;5093900;28;20036;-30
2023/10/22 11:22:39;;;;;;;1.63;0.60;;;14.60;99.90;;;;;;5094791;28;20159;-31
2023/10/22 11:25:10;;;;;;;2.25;0.40;;;15.00;1.00;;;;;;5094361;28;20474;-30
2023/10/22 11:27:37;;;;;;;2.42;0.32;;;15.50;99.90;;;;;;5094332;28;20071;-30
2023/10/22 11:30:04;;;;;;;1.85;0.30;;;15.80;1.00;;;;;;5094349;28;20048;-31
2023/10/22 11:32:29;;;;;;;1.88;0.30;;;15.90;1.00;;;;;;5094243;28;20486;-31
2023/10/22 11:35:00;;;;;;;4.55;0.38;;;15.80;99.90;;;;;;5076159;28;20047;-30
2023/10/22 11:37:30;;;;;;;2.20;0.20;;;16.10;1.00;;;;;;5094217;28;20051;-31
2023/10/22 11:39:57;;;;;;;4.53;0.30;;;16.10;99.90;;;;;;5094778;28;20428;-32
2023/10/22 11:42:31;;;;;;;1.33;0.20;;;15.90;1.00;;;;;;5094155;28;20051;-31
2023/10/22 11:44:57;;;;;;;1.17;0.35;;;15.90;99.90;;;;;;5094935;28;20123;-29
2023/10/22 11:47:33;;;;;;;0.93;0.15;;;15.70;99.90;;;;;;5087669;28;20450;-31
2023/10/22 11:50:00;;;;;;;2.17;0.30;;;15.50;24.20;;;;;;5073658;28;20041;-30
2023/10/22 11:52:38;;;;;;;1.73;0.55;;;15.60;99.90;;;;;;5072335;28;20048;-30
2023/10/22 11:55:09;;;;;;;0.68;0.10;;;15.80;99.90;;;;;;5072531;28;20497;-30
2023/10/22 11:57:39;;;;;;;0.30;0.10;;;15.80;1.00;;;;;;5072661;28;20123;-30
2023/10/22 12:00:14;;;;;;;1.40;0.20;;;15.30;1.00;;;;;;5074601;28;20117;-31
2023/10/22 12:02:40;;;;;;;1.65;0.25;;;14.90;99.90;;;;;;5074006;28;20101;-30
2023/10/22 12:05:06;;;;;;;2.20;0.10;;;14.60;97.30;;;;;;5073043;28;20047;-30
2023/10/22 12:07:32;;;;;;;0.85;0.20;;;14.30;99.90;;;;;;5073713;28;20123;-30
2023/10/22 12:09:58;;;;;;;1.23;0.17;;;14.50;1.00;;;;;;5072998;28;20049;-30
2023/10/22 12:12:24;;;;;;;1.52;0.10;;;14.80;99.90;;;;;;5073930;28;20044;-31
2023/10/22 12:14:50;;;;;;;1.85;0.28;;;14.90;1.00;;;;;;5072467;28;20115;-30
2023/10/22 12:17:17;;;;;;;1.08;0.17;;;14.90;31.50;;;;;;5073554;28;20123;-30
2023/10/22 12:19:43;;;;;;;2.65;0.30;;;15.00;1.00;;;;;;5072429;28;20053;-30
2023/10/22 12:22:09;;;;;;;1.17;0.10;;;15.00;1.00;;;;;;5073390;28;20051;-30
2023/10/22 12:24:35;;;;;;;1.17;0.20;;;15.20;1.00;;;;;;5073490;28;20038;-29
2023/10/22 12:27:01;;;;;;;0.73;0.30;;;15.10;99.90;;;;;;5073819;28;20044;-30
2023/10/22 12:29:27;;;;;;;1.25;0.00;;;15.10;99.90;;;;;;5077540;28;20043;-29
2023/10/22 12:31:52;;;;;;;1.15;0.10;;;15.10;99.90;;;;;;5073444;28;20402;-30
2023/10/22 12:34:18;;;;;;;3.08;0.30;;;15.20;99.90;;;;;;5071434;28;20063;-29
2023/10/22 12:36:44;;;;;;;1.15;0.13;;;15.20;99.90;;;;;;5074140;28;20040;-29
2023/10/22 12:39:11;;;;;;;1.17;0.20;;;14.90;99.90;;;;;;5055733;28;20474;-29
2023/10/22 12:41:37;;;;;;;2.10;0.20;;;15.10;99.90;;;;;;5073317;28;20041;-29
2023/10/22 12:44:03;;;;;;;1.15;0.10;;;15.00;99.90;;;;;;5073239;28;20156;-30
2023/10/22 12:46:30;;;;;;;0.80;0.15;;;14.60;99.90;;;;;;5072098;28;20048;-29
2023/10/22 12:48:56;;;;;;;0.82;0.38;;;14.10;99.90;;;;;;5073499;28;20040;-30